Time;durP1;ratioP1;P1;durP2;ratioP2;P2;SDS_P1;SDS_P2;PMS_P1;PMS_P2;Temp;Humidity;BMP_temperature;BMP_pressure;BME280_temperature;BME280_humidity;BME280_pressure;Samples;Min_cycle;Max_cycle;Signal;HPM_P1;HPM_P2
2022/08/30 00:02:56;;;;;;;;;;;;;;;15.81;100.00;-25512.06;5054768;28;19928;-77
2022/08/30 00:05:22;;;;;;;;;;;;;;;15.76;100.00;-25510.72;5052722;28;19917;-77
2022/08/30 00:07:47;;;;;;;;;;;;;;;15.75;100.00;-25510.31;5051697;28;20366;-78
2022/08/30 00:10:12;;;;;;;;;;;;;;;15.74;100.00;-25510.16;5051706;28;19921;-76
2022/08/30 00:12:38;;;;;;;;;;;;;;;15.72;100.00;-25509.56;5052208;28;19920;-76
2022/08/30 00:15:04;;;;;;;;;;;;;;;15.69;100.00;-25508.69;5052625;28;20373;-76
2022/08/30 00:17:29;;;;;;;;;;;;;;;15.71;100.00;-25509.28;5052614;28;19917;-76
2022/08/30 00:19:54;;;;;;;;;;;;;;;15.70;100.00;-25508.84;5051841;28;19943;-76
2022/08/30 00:22:20;;;;;;;;;;;;;;;15.67;100.00;-25508.13;5051385;28;19921;-76
2022/08/30 00:24:45;;;;;;;;;;;;;;;15.69;100.00;-25508.56;5051485;28;19963;-76
2022/08/30 00:27:10;;;;;;;;;;;;;;;15.69;100.00;-25508.56;5052064;28;19939;-77
2022/08/30 00:29:36;;;;;;;;;;;;;;;15.67;100.00;-25508.13;5051162;28;19978;-75
2022/08/30 00:32:01;;;;;;;;;;;;;;;15.67;100.00;-25508.13;5051359;28;19939;-76
2022/08/30 00:34:27;;;;;;;;;;;;;;;15.67;100.00;-25507.97;5051106;28;19928;-76
2022/08/30 00:36:52;;;;;;;;;;;;;;;15.66;100.00;-25507.69;5051070;28;19916;-76
2022/08/30 00:39:17;;;;;;;;;;;;;;;15.60;100.00;-25506.22;5050934;28;19955;-79
2022/08/30 00:41:43;;;;;;;;;;;;;;;15.57;100.00;-25505.22;5052069;28;20187;-78
2022/08/30 00:44:09;;;;;;;;;;;;;;;15.53;100.00;-25504.19;5050986;28;19916;-78
2022/08/30 00:46:34;;;;;;;;;;;;;;;15.50;100.00;-25503.31;5051675;28;20335;-77
2022/08/30 00:49:01;;;;;;;;;;;;;;;15.46;100.00;-25502.00;5051343;28;19916;-76
2022/08/30 00:51:27;;;;;;;;;;;;;;;15.42;100.00;-25501.13;5050235;28;19917;-77
2022/08/30 00:53:53;;;;;;;;;;;;;;;15.43;100.00;-25501.28;5050930;28;19917;-76
2022/08/30 00:56:19;;;;;;;;;;;;;;;15.43;100.00;-25501.28;5051501;28;19924;-76
2022/08/30 00:58:47;;;;;;;;;;;;;;;15.39;100.00;-25500.25;5050810;28;19917;-76
2022/08/30 01:01:13;;;;;;;;;;;;;;;15.37;100.00;-25499.53;5050725;28;19916;-76
2022/08/30 01:03:39;;;;;;;;;;;;;;;15.36;100.00;-25499.25;5050492;28;20019;-77
2022/08/30 01:06:06;;;;;;;;;;;;;;;15.37;100.00;-25499.53;5050290;28;19917;-77
2022/08/30 01:08:31;;;;;;;;;;;;;;;15.36;100.00;-25499.25;5050860;28;19917;-78
2022/08/30 01:10:57;;;;;;;;;;;;;;;15.37;100.00;-25499.69;5050754;28;19975;-79
2022/08/30 01:13:24;;;;;;;;;;;;;;;15.37;100.00;-25499.69;5051022;28;19948;-78
2022/08/30 01:15:49;;;;;;;;;;;;;;;15.41;100.00;-25500.69;5052586;28;19939;-79
2022/08/30 01:18:16;;;;;;;;;;;;;;;15.47;100.00;-25502.31;5050798;28;19920;-79
2022/08/30 01:21:02;;;;;;;;;;;;;;;15.50;100.00;-25503.31;5050810;28;19921;-79
2022/08/30 01:23:28;;;;;;;;;;;;;;;15.54;100.00;-25504.34;5052131;28;19916;-76
2022/08/30 01:25:53;;;;;;;;;;;;;;;15.59;100.00;-25505.78;5050271;28;20300;-77
2022/08/30 01:28:21;;;;;;;;;;;;;;;15.61;100.00;-25506.38;5050587;28;19917;-78
2022/08/30 01:30:47;;;;;;;;;;;;;;;15.66;100.00;-25507.84;5050940;28;19917;-78
2022/08/30 01:33:12;;;;;;;;;;;;;;;15.69;100.00;-25508.69;5050274;28;20416;-78
2022/08/30 01:35:42;;;;;;;;;;;;;;;15.71;100.00;-25509.28;5049970;28;20377;-79
2022/08/30 01:38:07;;;;;;;;;;;;;;;15.76;100.00;-25510.72;5050738;28;19994;-76
2022/08/30 01:40:32;;;;;;;;;;;;;;;15.77;100.00;-25511.03;5050290;28;20171;-78
2022/08/30 01:42:58;;;;;;;;;;;;;;;15.78;100.00;-25511.31;5049699;28;20322;-78
2022/08/30 01:45:23;;;;;;;;;;;;;;;15.79;100.00;-25511.47;5050596;28;20050;-76
2022/08/30 01:47:49;;;;;;;;;;;;;;;15.82;100.00;-25512.34;5050046;28;19916;-77
2022/08/30 01:50:15;;;;;;;;;;;;;;;15.82;100.00;-25512.19;5049642;28;19921;-77
2022/08/30 01:52:41;;;;;;;;;;;;;;;15.85;100.00;-25513.06;5050926;28;19913;-79
2022/08/30 01:55:07;;;;;;;;;;;;;;;15.84;100.00;-25512.78;5051267;28;19923;-77
2022/08/30 01:57:32;;;;;;;;;;;;;;;15.84;100.00;-25512.78;5049922;28;19916;-79
2022/08/30 01:59:58;;;;;;;;;;;;;;;15.81;100.00;-25512.06;5050108;28;19913;-77
2022/08/30 02:02:25;;;;;;;;;;;;;;;15.79;100.00;-25511.47;5049440;28;19917;-77
2022/08/30 02:04:51;;;;;;;;;;;;;;;15.82;100.00;-25512.19;5049684;28;19917;-79
2022/08/30 02:07:17;;;;;;;;;;;;;;;15.77;100.00;-25510.88;5049977;28;19917;-79
2022/08/30 02:09:42;;;;;;;;;;;;;;;15.77;100.00;-25511.03;5050523;28;19978;-79
2022/08/30 02:12:07;;;;;;;;;;;;;;;15.78;100.00;-25511.19;5051428;28;19924;-80
2022/08/30 02:14:33;;;;;;;;;;;;;;;15.76;100.00;-25510.72;5050144;28;19923;-79
2022/08/30 02:16:58;;;;;;;;;;;;;;;15.79;100.00;-25511.47;5050100;28;19943;-79
2022/08/30 02:19:24;;;;;;;;;;;;;;;15.77;100.00;-25511.03;5050724;28;20353;-78
2022/08/30 02:21:49;;;;;;;;;;;;;;;15.74;100.00;-25510.16;5049963;28;19917;-80
2022/08/30 02:24:14;;;;;;;;;;;;;;;15.74;100.00;-25510.16;5050381;28;19923;-79
2022/08/30 02:26:41;;;;;;;;;;;;;;;15.75;100.00;-25510.44;5051721;28;20420;-78
2022/08/30 02:29:06;;;;;;;;;;;;;;;15.73;100.00;-25509.88;5050300;28;19921;-78
2022/08/30 02:31:32;;;;;;;;;;;;;;;15.76;100.00;-25510.72;5050240;28;19917;-78
2022/08/30 02:33:57;;;;;;;;;;;;;;;15.76;100.00;-25510.72;5050054;28;19917;-77
2022/08/30 02:36:22;;;;;;;;;;;;;;;15.73;100.00;-25509.88;5048999;28;19923;-76
2022/08/30 02:38:49;;;;;;;;;;;;;;;15.72;100.00;-25509.56;5049438;28;20346;-75
2022/08/30 02:41:14;;;;;;;;;;;;;;;15.72;100.00;-25509.44;5049785;28;20376;-76
2022/08/30 02:43:39;;;;;;;;;;;;;;;15.73;100.00;-25509.88;5049349;28;19917;-76
2022/08/30 02:46:05;;;;;;;;;;;;;;;15.69;100.00;-25508.69;5049446;28;19921;-75
2022/08/30 02:48:30;;;;;;;;;;;;;;;15.65;100.00;-25507.41;5049900;28;19923;-76
2022/08/30 02:50:55;;;;;;;;;;;;;;;15.61;100.00;-25506.38;5048541;28;19921;-76
2022/08/30 02:53:20;;;;;;;;;;;;;;;15.55;100.00;-25504.63;5049007;28;19940;-75
2022/08/30 02:55:46;;;;;;;;;;;;;;;15.52;100.00;-25503.75;5049632;28;20003;-78
2022/08/30 02:58:12;;;;;;;;;;;;;;;15.49;100.00;-25503.03;5048933;28;20011;-77
2022/08/30 03:00:38;;;;;;;;;;;;;;;15.48;100.00;-25502.59;5049499;28;19917;-76
2022/08/30 03:03:03;;;;;;;;;;;;;;;15.48;100.00;-25502.59;5049213;28;19917;-77
2022/08/30 03:05:29;;;;;;;;;;;;;;;15.48;100.00;-25502.59;5048901;28;19924;-76
2022/08/30 03:07:54;;;;;;;;;;;;;;;15.45;100.00;-25501.88;5048796;28;19962;-77
2022/08/30 03:10:20;;;;;;;;;;;;;;;15.54;100.00;-25504.50;5050318;28;19917;-76
2022/08/30 03:12:46;;;;;;;;;;;;;;;15.47;100.00;-25502.44;5049817;28;20369;-76
2022/08/30 03:15:12;;;;;;;;;;;;;;;15.46;100.00;-25502.00;5051866;28;19917;-76
2022/08/30 03:17:38;;;;;;;;;;;;;;;15.53;100.00;-25504.06;5052237;28;19916;-76
2022/08/30 03:20:04;;;;;;;;;;;;;;;15.53;100.00;-25504.06;5052185;28;19924;-78
2022/08/30 03:22:29;;;;;;;;;;;;;;;15.46;100.00;-25502.16;5052471;28;20004;-79
2022/08/30 03:24:58;;;;;;;;;;;;;;;15.47;100.00;-25502.31;5053467;28;20328;-77
2022/08/30 03:27:23;;;;;;;;;;;;;;;15.47;100.00;-25502.44;5052694;28;20015;-76
2022/08/30 03:29:49;;;;;;;;;;;;;;;15.41;100.00;-25500.84;5052972;28;19916;-76
2022/08/30 03:32:14;;;;;;;;;;;;;;;15.42;100.00;-25501.00;5052038;28;19927;-77
2022/08/30 03:34:39;;;;;;;;;;;;;;;15.39;100.00;-25500.25;5053498;28;19920;-76
2022/08/30 03:37:05;;;;;;;;;;;;;;;15.40;100.00;-25500.41;5052779;28;20296;-77
2022/08/30 03:39:30;;;;;;;;;;;;;;;15.37;100.00;-25499.53;5052317;28;19967;-77
2022/08/30 03:41:56;;;;;;;;;;;;;;;15.37;100.00;-25499.53;5052460;28;19920;-75
2022/08/30 03:44:21;;;;;;;;;;;;;;;15.32;100.00;-25498.22;5053903;28;19974;-76
2022/08/30 03:46:46;;;;;;;;;;;;;;;15.34;100.00;-25498.66;5052418;28;19963;-76
2022/08/30 03:49:11;;;;;;;;;;;;;;;15.31;100.00;-25497.94;5051809;28;19917;-76
2022/08/30 03:51:37;;;;;;;;;;;;;;;15.29;100.00;-25497.34;5052818;28;20323;-76
2022/08/30 03:54:02;;;;;;;;;;;;;;;15.28;100.00;-25496.94;5051464;28;19916;-75
2022/08/30 03:56:27;;;;;;;;;;;;;;;15.24;100.00;-25495.91;5052295;28;19917;-77
2022/08/30 03:58:53;;;;;;;;;;;;;;;15.23;100.00;-25495.63;5052391;28;19924;-76
2022/08/30 04:01:18;;;;;;;;;;;;;;;15.19;100.00;-25494.59;5051426;28;20369;-77
2022/08/30 04:03:43;;;;;;;;;;;;;;;15.17;100.00;-25494.00;5051244;28;19916;-76
2022/08/30 04:06:09;;;;;;;;;;;;;;;15.12;100.00;-25492.41;5053384;28;19917;-76
2022/08/30 04:08:34;;;;;;;;;;;;;;;15.09;100.00;-25491.69;5051518;28;19963;-77
2022/08/30 04:11:01;;;;;;;;;;;;;;;15.04;100.00;-25490.38;5051448;28;19921;-76
2022/08/30 04:13:27;;;;;;;;;;;;;;;15.02;100.00;-25489.78;5052168;28;19927;-78
2022/08/30 04:15:52;;;;;;;;;;;;;;;15.00;100.00;-25489.22;5052730;28;19917;-80
2022/08/30 04:18:17;;;;;;;;;;;;;;;14.94;100.00;-25487.47;5050906;28;19921;-77
2022/08/30 04:20:42;;;;;;;;;;;;;;;14.93;100.00;-25487.03;5051277;28;19924;-77
2022/08/30 04:23:08;;;;;;;;;;;;;;;14.85;100.00;-25485.00;5051406;28;19928;-77
2022/08/30 04:25:33;;;;;;;;;;;;;;;14.81;100.00;-25483.69;5050716;28;20472;-77
2022/08/30 04:27:59;;;;;;;;;;;;;;;14.78;100.00;-25482.81;5050927;28;19916;-77
2022/08/30 04:30:24;;;;;;;;;;;;;;;14.76;100.00;-25482.22;5051865;28;19970;-78
2022/08/30 04:32:50;;;;;;;;;;;;;;;14.76;100.00;-25482.22;5052075;28;19924;-78
2022/08/30 04:35:15;;;;;;;;;;;;;;;14.72;100.00;-25481.34;5033818;28;19936;-77
2022/08/30 04:37:40;;;;;;;;;;;;;;;14.72;100.00;-25481.34;5051718;28;20285;-77
2022/08/30 04:40:06;;;;;;;;;;;;;;;14.69;100.00;-25480.31;5051548;28;20019;-76
2022/08/30 04:42:34;;;;;;;;;;;;;;;14.67;100.00;-25479.88;5067233;28;20247;-78
2022/08/30 04:45:07;;;;;;;;;;;;;;;14.65;100.00;-25479.16;5051126;28;20267;-79
2022/08/30 04:47:33;;;;;;;;;;;;;;;14.60;100.00;-25477.69;5051570;28;19920;-79
2022/08/30 04:49:58;;;;;;;;;;;;;;;14.55;100.00;-25476.38;5050401;28;20301;-78
2022/08/30 04:52:23;;;;;;;;;;;;;;;14.53;100.00;-25475.94;5051405;28;19917;-79
2022/08/30 04:54:58;;;;;;;;;;;;;;;14.52;100.00;-25475.66;5051491;28;20305;-78
2022/08/30 04:57:24;;;;;;;;;;;;;;;14.50;100.00;-25474.94;5051470;28;19924;-77
2022/08/30 04:59:50;;;;;;;;;;;;;;;14.49;100.00;-25474.78;5050989;28;19924;-76
2022/08/30 05:02:15;;;;;;;;;;;;;;;14.51;100.00;-25475.22;5050382;28;19920;-74
2022/08/30 05:05:38;;;;;;;;;;;;;;;14.50;100.00;-25474.94;5050611;28;19960;-76
2022/08/30 05:07:26;;;;;;;;;;;;;;;14.49;100.00;-25474.78;5051052;28;19920;-73
2022/08/30 05:09:51;;;;;;;;;;;;;;;14.52;100.00;-25475.66;5049508;28;20308;-76
2022/08/30 05:12:16;;;;;;;;;;;;;;;14.72;100.00;-25481.19;5050267;28;20412;-74
2022/08/30 05:14:41;;;;;;;;;;;;;;;14.98;100.00;-25488.47;5049936;28;19979;-74
2022/08/30 05:17:07;;;;;;;;;;;;;;;15.05;100.00;-25490.66;5049578;28;19927;-73
2022/08/30 05:19:32;;;;;;;;;;;;;;;15.29;100.00;-25497.34;5049524;28;20296;-74
2022/08/30 05:21:58;;;;;;;;;;;;;;;15.47;100.00;-25502.31;5049849;28;20296;-73
2022/08/30 05:24:23;;;;;;;;;;;;;;;15.67;100.00;-25508.13;5049317;28;19916;-74
2022/08/30 05:26:48;;;;;;;;;;;;;;;15.60;100.00;-25506.09;5049928;28;20008;-74
2022/08/30 05:29:13;;;;;;;;;;;;;;;15.75;100.00;-25510.44;5049372;28;19963;-74
2022/08/30 05:31:39;;;;;;;;;;;;;;;15.87;100.00;-25513.66;5049745;28;19923;-79
2022/08/30 05:34:04;;;;;;;;;;;;;;;16.26;100.00;-25524.84;5048865;28;19917;-75
2022/08/30 05:36:32;;;;;;;;;;;;;;;16.56;100.00;-25533.09;5049908;28;19921;-74
2022/08/30 05:38:59;;;;;;;;;;;;;;;16.77;100.00;-25539.22;5048144;28;19921;-74
2022/08/30 05:41:24;;;;;;;;;;;;;;;16.94;100.00;-25543.84;5049447;28;20292;-73
2022/08/30 05:43:51;;;;;;;;;;;;;;;16.97;100.00;-25544.88;5049844;28;19917;-74
2022/08/30 05:46:18;;;;;;;;;;;;;;;17.06;100.00;-25547.34;5048832;28;19962;-74
2022/08/30 05:48:44;;;;;;;;;;;;;;;17.11;100.00;-25548.63;5049025;28;19939;-74
2022/08/30 05:51:13;;;;;;;;;;;;;;;17.09;100.00;-25548.22;5049355;28;19917;-73
2022/08/30 05:53:39;;;;;;;;;;;;;;;17.51;100.00;-25560.09;5049086;28;19924;-73
2022/08/30 05:56:06;;;;;;;;;;;;;;;17.35;100.00;-25555.44;5048754;28;19917;-74
2022/08/30 05:58:31;;;;;;;;;;;;;;;17.09;100.00;-25548.22;5049879;28;19978;-77
2022/08/30 06:00:56;;;;;;;;;;;;;;;16.54;100.00;-25532.69;5049218;28;20358;-75
2022/08/30 06:03:22;;;;;;;;;;;;;;;16.29;100.00;-25525.56;5048920;28;20007;-77
2022/08/30 06:05:47;;;;;;;;;;;;;;;16.02;100.00;-25517.88;5049504;28;20357;-77
2022/08/30 06:08:12;;;;;;;;;;;;;;;15.96;100.00;-25516.25;5048648;28;19928;-74
2022/08/30 06:10:38;;;;;;;;;;;;;;;16.02;100.00;-25517.88;5048804;28;20301;-75
2022/08/30 06:13:03;;;;;;;;;;;;;;;16.27;100.00;-25524.97;5049368;28;20042;-73
2022/08/30 06:15:28;;;;;;;;;;;;;;;16.21;100.00;-25523.38;5049309;28;19924;-78
2022/08/30 06:17:54;;;;;;;;;;;;;;;16.35;100.00;-25527.16;5048619;28;19940;-76
2022/08/30 06:20:19;;;;;;;;;;;;;;;16.33;100.00;-25526.88;5048772;28;19917;-78
2022/08/30 06:22:44;;;;;;;;;;;;;;;16.32;100.00;-25526.56;5049395;28;19916;-76
2022/08/30 06:25:10;;;;;;;;;;;;;;;16.48;100.00;-25531.09;5048841;28;19963;-74
2022/08/30 06:27:35;;;;;;;;;;;;;;;16.57;100.00;-25533.53;5049023;28;19928;-74
2022/08/30 06:30:01;;;;;;;;;;;;;;;16.53;100.00;-25532.38;5048875;28;19921;-77
2022/08/30 06:32:26;;;;;;;;;;;;;;;16.76;100.00;-25538.78;5049627;28;20231;-78
2022/08/30 06:34:51;;;;;;;;;;;;;;;16.77;100.00;-25539.06;5049781;28;20288;-80
2022/08/30 06:37:16;;;;;;;;;;;;;;;16.68;100.00;-25536.75;5049252;28;19924;-77
2022/08/30 06:39:42;;;;;;;;;;;;;;;16.85;100.00;-25541.38;5050055;28;19916;-75
2022/08/30 06:42:07;;;;;;;;;;;;;;;16.88;100.00;-25542.13;5049091;28;19964;-74
2022/08/30 06:44:32;;;;;;;;;;;;;;;17.28;100.00;-25553.44;5049709;28;19957;-80
2022/08/30 06:46:57;;;;;;;;;;;;;;;17.53;100.00;-25560.66;5049123;28;19917;-79
2022/08/30 06:49:23;;;;;;;;;;;;;;;17.30;100.00;-23902.47;5051330;28;20327;-80
2022/08/30 06:51:48;;;;;;;;;;;;;;;17.16;100.00;-22248.94;5053267;28;19923;-78
2022/08/30 06:54:13;;;;;;;;;;;;;;;17.14;100.00;-21918.38;5036761;28;19925;-77
2022/08/30 06:56:39;;;;;;;;;;;;;;;17.13;100.00;-21258.06;5053045;28;19920;-79
2022/08/30 06:59:04;;;;;;;;;;;;;;;17.37;100.00;-20932.84;5052343;28;19917;-78
2022/08/30 07:01:30;;;;;;;;;;;;;;;17.28;100.00;-18288.06;5054027;28;19923;-78
2022/08/30 07:03:55;;;;;;;;;;;;;;;17.36;100.00;-16636.59;5052330;28;20019;-77
2022/08/30 07:06:21;;;;;;;;;;;;;;;17.92;100.00;-13995.97;5053160;28;19921;-79
2022/08/30 07:08:48;;;;;;;;;;;;;;;17.88;100.00;-6703.19;5054344;28;19924;-77
2022/08/30 07:11:14;;;;;;;;;;;;;;;17.84;100.00;-1723.50;5054780;28;19921;-75
2022/08/30 07:13:39;;;;;;;;;;;;;;;17.74;100.00;601.25;5058183;28;19917;-78
2022/08/30 07:16:09;;;;;;;;;;;;;;;17.54;100.00;3590.06;5053255;28;19923;-78
2022/08/30 07:18:49;;;;;;;;;;;;;;;17.51;100.00;3921.91;5052514;28;19944;-78
2022/08/30 07:21:17;;;;;;;;;;;;;;;17.49;100.00;4586.59;5052646;28;20369;-78
2022/08/30 07:23:43;;;;;;;;;;;;;;;17.69;100.00;4590.47;5052434;28;19928;-78
2022/08/30 07:26:09;;;;;;;;;;;;;;;17.61;100.00;7583.59;5051671;28;19924;-77
2022/08/30 07:28:38;;;;;;;;;;;;;;;17.75;100.00;7254.13;5052676;28;19967;-78
2022/08/30 07:31:04;;;;;;;;;;;;;;;17.86;100.00;9921.56;5051807;28;19924;-74
2022/08/30 07:33:30;;;;;;;;;;;;;;;18.10;100.00;11928.66;5051650;28;19913;-73
2022/08/30 07:35:55;;;;;;;;;;;;;;;18.21;100.00;15602.97;5051574;28;20416;-77
2022/08/30 07:38:20;;;;;;;;;;;;;;;18.34;100.00;24300.34;5051978;28;20015;-77
2022/08/30 07:40:46;;;;;;;;;;;;;;;18.88;100.00;37413.97;5051629;28;20325;-78
2022/08/30 07:43:11;;;;;;;;;;;;;;;19.16;100.00;60366.28;5051537;28;20017;-75
2022/08/30 07:45:37;;;;;;;;;;;;;;;19.51;100.00;85183.66;5051422;28;20047;-75
2022/08/30 07:48:03;;;;;;;;;;;;;;;19.69;100.00;128700.69;5051803;28;19916;-75
2022/08/30 07:50:28;;;;;;;;;;;;;;;20.05;100.00;147766.09;5052998;28;19923;-75
2022/08/30 07:52:54;;;;;;;;;;;;;;;20.57;100.00;147895.50;5052498;28;20277;-78
2022/08/30 07:55:19;;;;;;;;;;;;;;;20.37;100.00;147845.53;5053303;28;20289;-78
2022/08/30 07:57:44;;;;;;;;;;;;;;;20.70;100.00;147926.31;5054376;28;19963;-79
2022/08/30 08:00:10;;;;;;;;;;;;;;;20.57;100.00;147894.19;5052033;28;19991;-75
2022/08/30 08:02:36;;;;;;;;;;;;;;;20.66;100.00;147917.31;5051079;28;19916;-76
2022/08/30 08:05:02;;;;;;;;;;;;;;;20.26;100.00;147818.63;5052886;28;19912;-73
2022/08/30 08:07:27;;;;;;;;;;;;;;;20.10;100.00;147777.63;5051161;28;20008;-76
2022/08/30 08:09:52;;;;;;;;;;;;;;;20.25;100.00;147814.78;5051614;28;20136;-77
2022/08/30 08:12:17;;;;;;;;;;;;;;;20.29;100.00;147825.06;5051420;28;19917;-76
2022/08/30 08:14:42;;;;;;;;;;;;;;;20.16;100.00;147793.00;5052473;28;20350;-77
2022/08/30 08:17:08;;;;;;;;;;;;;;;20.37;100.00;147845.53;5050356;28;19987;-73
2022/08/30 08:19:33;;;;;;;;;;;;;;;20.43;100.00;147860.91;5053562;28;20149;-74
2022/08/30 08:21:59;;;;;;;;;;;;;;;20.53;100.00;147883.97;5051616;28;20323;-75
2022/08/30 08:24:28;;;;;;;;;;;;;;;20.36;100.00;147842.97;5051830;28;19916;-73
2022/08/30 08:26:54;;;;;;;;;;;;;;;20.36;100.00;147842.97;5048788;28;20327;-74
2022/08/30 08:29:21;;;;;;;;;;;;;;;20.18;100.00;147796.84;5051604;28;19924;-74
2022/08/30 08:31:46;;;;;;;;;;;;;;;20.37;100.00;147845.53;5051140;28;19928;-73
2022/08/30 08:34:12;;;;;;;;;;;;;;;20.62;100.00;147908.31;5050561;28;19928;-73
2022/08/30 08:36:37;;;;;;;;;;;;;;;20.68;100.00;147921.16;5051153;28;19967;-72
2022/08/30 08:39:03;;;;;;;;;;;;;;;20.47;100.00;147868.59;5051294;28;19917;-74
2022/08/30 08:41:44;;;;;;;;;;;;;;;20.80;100.00;147953.22;5050709;28;19917;-74
2022/08/30 08:44:24;;;;;;;;;;;;;;;20.66;100.00;147917.31;5050160;28;20096;-73
2022/08/30 08:47:08;;;;;;;;;;;;;;;20.74;100.00;147937.84;5050965;28;20296;-76
2022/08/30 08:49:34;;;;;;;;;;;;;;;20.55;100.00;147889.09;5052074;28;19970;-74
2022/08/30 08:54:55;;;;;;;;;;;;;;;20.54;100.00;147886.50;5053870;28;19924;-76
2022/08/30 08:57:20;;;;;;;;;;;;;;;20.75;100.00;147940.38;5050880;28;19920;-75
2022/08/30 08:59:45;;;;;;;;;;;;;;;20.84;100.00;147962.19;5050081;28;20393;-73
2022/08/30 09:02:28;;;;;;;;;;;;;;;20.78;100.00;147948.06;5049660;28;19924;-77
2022/08/30 09:04:57;;;;;;;;;;;;;;;20.92;100.00;147981.41;5050107;28;20314;-76
2022/08/30 09:07:24;;;;;;;;;;;;;;;20.69;100.00;147925.00;5051228;28;19927;-81
2022/08/30 09:09:50;;;;;;;;;;;;;;;21.13;100.00;148035.22;5050216;28;19927;-77
2022/08/30 09:12:15;;;;;;;;;;;;;;;21.14;100.00;148037.78;5050195;28;19917;-79
2022/08/30 09:14:51;;;;;;;;;;;;;;;21.02;100.00;148007.06;5050955;28;19939;-77
2022/08/30 09:17:18;;;;;;;;;;;;;;;20.94;100.00;147986.50;5049486;28;19920;-78
2022/08/30 09:19:45;;;;;;;;;;;;;;;20.73;100.00;147935.25;5050169;28;19979;-78
2022/08/30 09:22:10;;;;;;;;;;;;;;;20.84;100.00;147960.91;5050676;28;19935;-79
2022/08/30 09:24:36;;;;;;;;;;;;;;;20.87;100.00;147968.59;5050097;28;20435;-79
2022/08/30 09:27:19;;;;;;;;;;;;;;;20.98;100.00;147996.78;5050544;28;19959;-76
2022/08/30 09:29:54;;;;;;;;;;;;;;;21.00;100.00;148001.91;5050593;28;19917;-81
2022/08/30 09:32:27;;;;;;;;;;;;;;;20.96;100.00;147992.94;5049730;28;20106;-81
2022/08/30 09:34:52;;;;;;;;;;;;;;;21.10;100.00;148027.53;5050046;28;19927;-80
2022/08/30 09:37:26;;;;;;;;;;;;;;;20.98;100.00;147996.78;5049893;28;20012;-77
2022/08/30 09:39:52;;;;;;;;;;;;;;;20.83;100.00;147958.34;5050377;28;19917;-79
2022/08/30 09:42:24;;;;;;;;;;;;;;;20.84;100.00;147960.91;5050606;28;20384;-76
2022/08/30 09:44:49;;;;;;;;;;;;;;;20.84;100.00;147962.19;5050081;28;19917;-78
2022/08/30 09:47:23;;;;;;;;;;;;;;;20.88;100.00;147971.13;5050136;28;20004;-79
2022/08/30 09:49:48;;;;;;;;;;;;;;;20.91;100.00;147978.81;5050812;28;19978;-80
2022/08/30 09:52:32;;;;;;;;;;;;;;;21.14;100.00;148036.50;5049354;28;20382;-74
2022/08/30 09:55:01;;;;;;;;;;;;;;;21.11;100.00;148030.06;5049233;28;19916;-80
2022/08/30 09:57:45;;;;;;;;;;;;;;;20.71;100.00;147930.16;5050137;28;20402;-81
2022/08/30 10:00:21;;;;;;;;;;;;;;;20.91;100.00;147980.13;5048871;28;19994;-75
2022/08/30 10:02:46;;;;;;;;;;;;;;;20.90;100.00;147977.56;5049610;28;19920;-74
2022/08/30 10:05:11;;;;;;;;;;;;;;;21.01;100.00;148004.47;5049028;28;19923;-75
2022/08/30 10:07:43;;;;;;;;;;;;;;;21.09;100.00;148024.97;5049552;28;20510;-73
2022/08/30 10:10:30;;;;;;;;;;;;;;;21.24;100.00;148062.16;5049023;28;19917;-74
2022/08/30 10:13:10;;;;;;;;;;;;;;;21.54;100.00;148136.56;5048590;28;19917;-77
2022/08/30 10:15:44;;;;;;;;;;;;;;;21.55;100.00;148137.81;5048759;28;19979;-74
2022/08/30 10:18:14;;;;;;;;;;;;;;;21.61;100.00;148154.50;5049525;28;19917;-78
2022/08/30 10:20:59;;;;;;;;;;;;;;;21.48;100.00;148122.38;5049539;28;19924;-79
2022/08/30 10:23:28;;;;;;;;;;;;;;;21.42;100.00;148105.72;5049979;28;19923;-78
2022/08/30 10:26:03;;;;;;;;;;;;;;;21.57;100.00;148144.25;5054233;28;19916;-77
2022/08/30 10:28:34;;;;;;;;;;;;;;;21.50;100.00;148126.28;5053273;28;20369;-76
2022/08/30 10:31:02;;;;;;;;;;;;;;;21.70;100.00;148176.28;5052805;28;20019;-80
2022/08/30 10:33:43;;;;;;;;;;;;;;;21.69;100.00;148175.00;5053165;28;19913;-78
2022/08/30 10:36:10;;;;;;;;;;;;;;;21.78;100.00;148195.50;5054281;28;19921;-80
2022/08/30 10:38:37;;;;;;;;;;;;;;;21.80;100.00;148201.94;5053971;28;19923;-78
2022/08/30 10:41:14;;;;;;;;;;;;;;;21.71;100.00;148177.59;5053074;28;19956;-78
2022/08/30 10:43:45;;;;;;;;;;;;;;;21.68;100.00;148172.44;5054414;28;20324;-79
2022/08/30 10:46:15;;;;;;;;;;;;;;;21.84;100.00;148210.91;5053256;28;19917;-77
2022/08/30 10:48:42;;;;;;;;;;;;;;;21.80;100.00;148201.94;5053028;28;19992;-76
2022/08/30 10:51:11;;;;;;;;;;;;;;;21.92;100.00;148230.16;5052982;28;20044;-77
2022/08/30 10:53:42;;;;;;;;;;;;;;;21.96;100.00;148240.41;5053420;28;19924;-76
2022/08/30 10:56:10;;;;;;;;;;;;;;;22.15;100.00;148287.88;5053770;28;19917;-76
2022/08/30 10:58:39;;;;;;;;;;;;;;;21.94;100.00;148236.56;5053049;28;19924;-74
2022/08/30 11:01:04;;;;;;;;;;;;;;;22.19;100.00;148299.41;5052425;28;20376;-76
2022/08/30 11:03:48;;;;;;;;;;;;;;;22.05;100.00;148263.50;5052580;28;19917;-77
2022/08/30 11:06:14;;;;;;;;;;;;;;;21.73;100.00;148182.72;5052690;28;19917;-75
2022/08/30 11:08:58;;;;;;;;;;;;;;;21.96;100.00;148240.41;5053006;28;19962;-77
2022/08/30 11:11:23;;;;;;;;;;;;;;;22.22;100.00;148307.09;5052846;28;20331;-76
2022/08/30 11:13:49;;;;;;;;;;;;;;;22.24;100.00;148310.94;5053170;28;19962;-76
2022/08/30 11:16:17;;;;;;;;;;;;;;;22.31;100.00;148328.97;5052195;28;19975;-76
2022/08/30 11:18:48;;;;;;;;;;;;;;;22.21;100.00;148304.53;5052708;28;19928;-76
2022/08/30 11:21:22;;;;;;;;;;;;;;;22.23;100.00;148309.69;5052443;28;19921;-77
2022/08/30 11:24:01;;;;;;;;;;;;;;;22.26;100.00;148314.78;5052242;28;20377;-75
2022/08/30 11:26:48;;;;;;;;;;;;;;;22.47;100.00;148368.72;5052568;28;19990;-76
2022/08/30 11:29:28;;;;;;;;;;;;;;;22.52;100.00;148381.53;5052223;28;19986;-76
2022/08/30 11:31:55;;;;;;;;;;;;;;;22.28;100.00;148319.91;5052065;28;19924;-75
2022/08/30 11:34:39;;;;;;;;;;;;;;;22.53;100.00;148384.13;5052222;28;19978;-77
2022/08/30 11:37:04;;;;;;;;;;;;;;;22.32;100.00;148330.25;5051973;28;19937;-76
2022/08/30 11:39:43;;;;;;;;;;;;;;;22.48;100.00;148370.00;5051996;28;19990;-78
2022/08/30 11:42:28;;;;;;;;;;;;;;;22.66;100.00;148414.91;5052262;28;19917;-79
2022/08/30 11:45:14;;;;;;;;;;;;;;;22.51;100.00;148379.00;5050685;28;19916;-78
2022/08/30 11:47:46;;;;;;;;;;;;;;;22.50;100.00;148376.44;5052154;28;19916;-79
2022/08/30 11:50:17;;;;;;;;;;;;;;;22.43;100.00;148358.44;5052391;28;19978;-77
2022/08/30 11:52:55;;;;;;;;;;;;;;;22.22;100.00;148305.84;5051709;28;19913;-76
2022/08/30 11:55:38;;;;;;;;;;;;;;;22.34;100.00;148336.66;5052131;28;19971;-76
2022/08/30 11:58:07;;;;;;;;;;;;;;;22.47;100.00;148368.72;5051873;28;19916;-78
2022/08/30 12:00:32;;;;;;;;;;;;;;;22.26;100.00;148314.78;5051437;28;19939;-75
2022/08/30 12:03:02;;;;;;;;;;;;;;;22.33;100.00;148334.09;5051776;28;20323;-79
2022/08/30 12:05:45;;;;;;;;;;;;;;;22.52;100.00;148381.53;5051668;28;19972;-78
2022/08/30 12:08:13;;;;;;;;;;;;;;;22.52;100.00;148381.53;5051772;28;19917;-78
2022/08/30 12:10:58;;;;;;;;;;;;;;;22.23;100.00;148309.69;5052589;28;20007;-78
2022/08/30 12:13:33;;;;;;;;;;;;;;;22.33;100.00;148334.09;5051439;28;20007;-77
2022/08/30 12:15:58;;;;;;;;;;;;;;;22.41;100.00;148354.59;5051517;28;20277;-76
2022/08/30 12:18:45;;;;;;;;;;;;;;;22.54;100.00;148386.72;5054430;28;19944;-77
2022/08/30 12:21:16;;;;;;;;;;;;;;;22.72;100.00;148430.31;5044332;28;20368;-75
2022/08/30 12:23:54;;;;;;;;;;;;;;;22.52;100.00;148381.53;5050869;28;20396;-76
2022/08/30 12:26:19;;;;;;;;;;;;;;;22.27;100.00;148317.38;5050551;28;19913;-77
2022/08/30 12:28:47;;;;;;;;;;;;;;;22.42;100.00;148355.91;5050420;28;19920;-75
2022/08/30 12:31:15;;;;;;;;;;;;;;;22.48;100.00;148371.31;5050739;28;19920;-75
2022/08/30 12:33:43;;;;;;;;;;;;;;;22.41;100.00;148353.34;5050428;28;20369;-74
2022/08/30 12:36:13;;;;;;;;;;;;;;;22.65;100.00;148413.59;5050320;28;19925;-76